Time;durP1;ratioP1;P1;durP2;ratioP2;P2;SDS_P1;SDS_P2;PMS_P1;PMS_P2;Temp;Humidity;BMP_temperature;BMP_pressure;BME280_temperature;BME280_humidity;BME280_pressure;Samples;Min_cycle;Max_cycle;Signal;HPM_P1;HPM_P2
2023/02/17 00:01:18;;;;;;;79.27;55.57;;;;;;;8.04;100.00;101672.97;4987732;28;20582;-68
2023/02/17 00:03:47;;;;;;;77.43;54.30;;;;;;;8.02;100.00;101662.72;4985359;28;20183;-68
2023/02/17 00:06:13;;;;;;;79.20;54.40;;;;;;;8.04;100.00;101667.88;4985522;28;20804;-70
2023/02/17 00:08:38;;;;;;;80.73;55.73;;;;;;;8.03;100.00;101667.03;4988536;28;20211;-69
2023/02/17 00:11:04;;;;;;;76.23;53.60;;;;;;;8.04;100.00;101660.22;4984510;28;20219;-69
2023/02/17 00:13:30;;;;;;;80.10;55.07;;;;;;;8.04;100.00;101668.78;4993305;28;20281;-69
2023/02/17 00:15:55;;;;;;;79.70;54.90;;;;;;;8.05;100.00;101662.84;4993229;28;20208;-70
2023/02/17 00:18:21;;;;;;;75.30;51.73;;;;;;;8.05;100.00;101662.84;4987209;28;20283;-68
2023/02/17 00:20:46;;;;;;;74.23;52.63;;;;;;;8.08;100.00;101662.13;4995859;28;20738;-69
2023/02/17 00:23:12;;;;;;;76.37;51.83;;;;;;;8.09;100.00;101651.09;4991281;28;20191;-70
2023/02/17 00:25:38;;;;;;;73.70;53.27;;;;;;;8.09;100.00;101646.88;4991675;28;20779;-69
2023/02/17 00:28:03;;;;;;;73.53;52.90;;;;;;;8.10;100.00;101645.19;4993932;28;20207;-69
2023/02/17 00:30:29;;;;;;;69.27;51.27;;;;;;;8.10;100.00;101643.50;4994553;28;20215;-69
2023/02/17 00:32:54;;;;;;;66.20;49.20;;;;;;;8.10;100.00;101643.50;4972125;28;20274;-69
2023/02/17 00:35:20;;;;;;;68.40;49.67;;;;;;;8.11;100.00;101635.06;4989484;28;20212;-69
2023/02/17 00:37:45;;;;;;;68.93;49.47;;;;;;;8.12;100.00;101633.38;4994218;28;20195;-68
2023/02/17 00:40:12;;;;;;;69.30;49.37;;;;;;;8.12;100.00;101639.38;4991701;28;20259;-70
2023/02/17 00:42:37;;;;;;;69.90;49.50;;;;;;;8.12;100.00;101633.38;4990126;28;20205;-68
2023/02/17 00:45:03;;;;;;;70.60;49.73;;;;;;;8.13;100.00;101632.56;4993177;28;20208;-68
2023/02/17 00:47:30;;;;;;;72.30;50.37;;;;;;;8.14;100.00;101630.09;4992868;28;20203;-70
2023/02/17 00:49:56;;;;;;;72.03;49.80;;;;;;;8.15;100.00;101623.31;4991175;28;20703;-68
2023/02/17 00:52:21;;;;;;;68.07;49.10;;;;;;;8.15;100.00;101623.31;4983758;28;20636;-69
2023/02/17 00:54:47;;;;;;;65.53;47.43;;;;;;;8.16;100.00;101617.41;4986570;28;20631;-69
2023/02/17 00:57:12;;;;;;;66.40;47.53;;;;;;;8.17;100.00;101614.03;4994292;28;20195;-70
2023/02/17 00:59:38;;;;;;;69.53;49.80;;;;;;;8.20;100.00;101621.81;4991370;28;20203;-70
2023/02/17 01:02:07;;;;;;;70.47;48.77;;;;;;;8.21;100.00;101614.25;4988841;28;20187;-70
2023/02/17 01:04:34;;;;;;;68.17;48.77;;;;;;;8.20;100.00;101614.19;4986842;28;20200;-68
2023/02/17 01:07:00;;;;;;;65.57;48.93;;;;;;;8.21;100.00;101618.50;4988371;28;20202;-70
2023/02/17 01:09:25;;;;;;;70.77;49.00;;;;;;;8.23;100.00;101614.31;4990330;28;20205;-70
2023/02/17 01:11:51;;;;;;;67.03;46.87;;;;;;;8.23;100.00;101617.75;4988475;28;20204;-68
2023/02/17 01:14:16;;;;;;;66.10;48.10;;;;;;;8.24;100.00;101611.81;4987423;28;20235;-69
2023/02/17 01:16:47;;;;;;;63.47;46.53;;;;;;;8.26;100.00;101607.69;4992426;28;20278;-69
2023/02/17 01:19:17;;;;;;;65.27;47.47;;;;;;;8.27;100.00;101611.09;4987430;28;20272;-70
2023/02/17 01:21:46;;;;;;;63.40;45.73;;;;;;;8.28;100.00;101600.94;4984522;28;20581;-70
2023/02/17 01:24:12;;;;;;;65.50;47.67;;;;;;;8.29;100.00;101592.47;4990419;28;20185;-69
2023/02/17 01:26:38;;;;;;;65.43;46.47;;;;;;;8.31;100.00;101579.78;4993254;28;20199;-67
2023/02/17 01:29:05;;;;;;;67.13;47.67;;;;;;;8.31;100.00;101578.13;4989586;28;20196;-69
2023/02/17 01:31:31;;;;;;;65.20;46.73;;;;;;;8.36;100.00;101575.72;4990297;28;20215;-70
2023/02/17 01:33:59;;;;;;;65.33;45.83;;;;;;;8.38;100.00;101571.59;4988297;28;20208;-70
2023/02/17 01:36:25;;;;;;;65.17;45.27;;;;;;;8.41;100.00;101579.34;4990044;28;20198;-70
2023/02/17 01:38:50;;;;;;;66.53;46.90;;;;;;;8.44;100.00;101574.38;4991792;28;20200;-69
2023/02/17 01:41:19;;;;;;;64.83;46.10;;;;;;;8.46;100.00;101568.50;4991467;28;20627;-69
2023/02/17 01:44:15;;;;;;;65.57;46.43;;;;;;;8.46;100.00;101565.97;4985486;28;20192;-69
2023/02/17 01:46:46;;;;;;;65.50;45.40;;;;;;;8.51;100.00;101561.91;4986846;28;20191;-69
2023/02/17 01:49:24;;;;;;;71.97;47.80;;;;;;;8.52;100.00;101553.44;4989093;28;20192;-69
2023/02/17 01:52:19;;;;;;;67.37;46.63;;;;;;;8.58;100.00;101552.81;4992100;28;20199;-70
2023/02/17 01:54:56;;;;;;;67.00;46.13;;;;;;;8.60;100.00;101552.03;4985132;28;20228;-69
2023/02/17 01:57:26;;;;;;;73.50;49.07;;;;;;;8.62;100.00;101547.00;4985814;28;20227;-71
2023/02/17 01:59:52;;;;;;;70.57;48.83;;;;;;;8.62;100.00;101540.19;4992392;28;20210;-70
2023/02/17 02:02:19;;;;;;;72.33;51.17;;;;;;;8.65;100.00;101531.78;4987502;28;20219;-70
2023/02/17 02:04:48;;;;;;;76.60;49.43;;;;;;;8.68;100.00;101519.16;4985935;28;20187;-70
2023/02/17 02:07:19;;;;;;;75.60;50.67;;;;;;;8.70;100.00;101525.19;4991425;28;20196;-70
2023/02/17 02:09:56;;;;;;;71.70;48.93;;;;;;;8.70;100.00;101513.28;4985102;28;20212;-70
2023/02/17 02:12:27;;;;;;;77.50;51.80;;;;;;;8.72;100.00;101514.22;4987409;28;20246;-69
2023/02/17 02:14:57;;;;;;;79.57;53.23;;;;;;;8.74;100.00;101510.03;4991384;28;20243;-69
2023/02/17 02:17:58;;;;;;;78.13;49.90;;;;;;;8.74;100.00;101498.94;4986823;28;20577;-70
2023/02/17 02:20:54;;;;;;;79.50;49.97;;;;;;;8.75;100.00;101486.25;4985061;28;20704;-69
2023/02/17 02:23:32;;;;;;;80.47;50.67;;;;;;;8.78;100.00;101485.47;4972281;28;20242;-69
2023/02/17 02:26:20;;;;;;;75.33;49.50;;;;;;;8.76;100.00;101480.31;4992156;28;20191;-69
2023/02/17 02:29:07;;;;;;;78.13;49.33;;;;;;;8.80;100.00;101477.06;4980581;28;20607;-70
2023/02/17 02:31:51;;;;;;;81.80;50.03;;;;;;;8.81;100.00;101463.47;5001082;28;20278;-70
2023/02/17 02:34:24;;;;;;;76.17;48.70;;;;;;;8.85;100.00;101456.81;4984183;28;20303;-69
2023/02/17 02:36:50;;;;;;;68.83;46.70;;;;;;;8.86;100.00;101450.88;4991601;28;20626;-70
2023/02/17 02:39:18;;;;;;;69.80;47.83;;;;;;;8.89;100.00;101449.31;4991485;28;20230;-69
2023/02/17 02:41:52;;;;;;;72.80;48.23;;;;;;;8.90;100.00;101451.03;4988079;28;20195;-70
2023/02/17 02:44:20;;;;;;;73.07;47.47;;;;;;;8.90;100.00;101442.53;4988291;28;20212;-70
2023/02/17 02:46:59;;;;;;;68.73;46.27;;;;;;;8.92;100.00;101443.44;4986713;28;20253;-70
2023/02/17 02:49:25;;;;;;;67.37;46.63;;;;;;;8.93;100.00;101430.72;4986794;28;20207;-70
2023/02/17 02:52:03;;;;;;;68.20;45.97;;;;;;;8.94;100.00;101442.69;4994288;28;20195;-69
2023/02/17 02:55:03;;;;;;;68.00;45.50;;;;;;;8.95;100.00;101424.00;4986409;28;20240;-70
2023/02/17 02:57:44;;;;;;;69.93;44.80;;;;;;;8.98;100.00;101426.66;4985309;28;20200;-70
2023/02/17 03:00:31;;;;;;;64.83;44.00;;;;;;;8.99;100.00;101440.31;4989444;28;20301;-70
2023/02/17 03:03:16;;;;;;;65.43;43.90;;;;;;;8.99;100.00;101432.63;4983690;28;21008;-69
2023/02/17 03:05:56;;;;;;;64.73;43.83;;;;;;;9.01;100.00;101426.75;5006529;28;20298;-70
2023/02/17 03:08:33;;;;;;;63.77;43.60;;;;;;;9.02;100.00;101427.63;5004311;28;20215;-70
2023/02/17 03:10:59;;;;;;;68.57;44.70;;;;;;;9.02;100.00;101423.38;4978513;28;20222;-67
2023/02/17 03:13:25;;;;;;;64.37;43.17;;;;;;;9.03;100.00;101412.34;4989799;28;20215;-69
2023/02/17 03:15:51;;;;;;;62.40;41.80;;;;;;;9.06;100.00;101409.03;4990801;28;20191;-69
2023/02/17 03:18:17;;;;;;;62.77;41.60;;;;;;;9.06;100.00;101404.81;4986948;28;20191;-70
2023/02/17 03:20:56;;;;;;;61.57;40.37;;;;;;;9.07;100.00;101413.34;4973639;28;20217;-70
2023/02/17 03:23:23;;;;;;;59.37;41.37;;;;;;;9.09;100.00;101420.25;4968219;28;20287;-70
2023/02/17 03:25:49;;;;;;;58.37;38.00;;;;;;;9.13;100.00;101413.53;4989144;28;20278;-70
2023/02/17 03:28:14;;;;;;;55.77;38.43;;;;;;;9.11;100.00;101402.38;4995502;28;20196;-70
2023/02/17 03:30:40;;;;;;;56.63;38.13;;;;;;;9.13;100.00;101399.06;4975215;28;20323;-70
2023/02/17 03:33:06;;;;;;;58.23;39.13;;;;;;;9.16;100.00;101388.06;4990652;28;20818;-68
2023/02/17 03:35:32;;;;;;;54.40;38.20;;;;;;;9.15;100.00;101387.22;4992307;28;20210;-68
2023/02/17 03:37:58;;;;;;;52.67;37.50;;;;;;;9.16;100.00;101380.41;4987964;28;20199;-71
2023/02/17 03:40:23;;;;;;;55.07;37.63;;;;;;;9.16;100.00;101381.28;4989543;28;20803;-70
2023/02/17 03:42:48;;;;;;;54.20;38.23;;;;;;;9.16;100.00;101381.28;4994888;28;20226;-70
2023/02/17 03:45:14;;;;;;;55.43;37.53;;;;;;;9.19;100.00;101376.31;4992384;28;20191;-70
2023/02/17 03:47:39;;;;;;;53.77;35.87;;;;;;;9.21;100.00;101384.03;4994017;28;20198;-70
2023/02/17 03:50:06;;;;;;;51.73;35.70;;;;;;;9.21;100.00;101372.09;4991665;28;20211;-70
2023/02/17 03:52:31;;;;;;;50.80;34.20;;;;;;;9.21;100.00;101378.91;4998401;28;20191;-70
2023/02/17 03:54:57;;;;;;;48.80;33.93;;;;;;;9.23;100.00;101379.81;4994136;28;20677;-69
2023/02/17 03:57:22;;;;;;;51.10;35.63;;;;;;;9.25;100.00;101380.72;4992450;28;20272;-70
2023/02/17 03:59:47;;;;;;;50.17;35.80;;;;;;;9.25;100.00;101379.06;5000203;28;20695;-70
2023/02/17 04:02:13;;;;;;;51.83;35.17;;;;;;;9.25;100.00;101371.38;4995942;28;20192;-70
2023/02/17 04:04:38;;;;;;;48.47;34.43;;;;;;;9.24;100.00;101371.31;4996040;28;20198;-69
2023/02/17 04:07:04;;;;;;;51.30;34.80;;;;;;;9.25;100.00;101371.38;4996565;28;20677;-69
2023/02/17 04:09:29;;;;;;;54.13;34.77;;;;;;;9.26;100.00;101373.13;4995641;28;20211;-69
2023/02/17 04:11:55;;;;;;;49.93;33.63;;;;;;;9.26;100.00;101369.72;4992586;28;20205;-70
2023/02/17 04:14:20;;;;;;;49.93;35.20;;;;;;;9.27;100.00;101363.78;4994619;28;20347;-70
2023/02/17 04:16:46;;;;;;;51.37;34.90;;;;;;;9.27;100.00;101358.66;4997460;28;20675;-69
2023/02/17 04:19:11;;;;;;;49.60;33.97;;;;;;;9.27;100.00;101356.09;4993235;28;20677;-69
2023/02/17 04:21:37;;;;;;;49.00;33.67;;;;;;;9.26;100.00;101355.22;5001282;28;20551;-70
2023/02/17 04:24:03;;;;;;;48.80;32.40;;;;;;;9.28;100.00;101348.50;4993590;28;20192;-69
2023/02/17 04:26:29;;;;;;;48.47;33.60;;;;;;;9.28;100.00;101350.16;4995138;28;20192;-70
2023/02/17 04:28:54;;;;;;;52.63;34.63;;;;;;;9.28;100.00;101356.16;5000461;28;20178;-70
2023/02/17 04:31:20;;;;;;;48.17;33.27;;;;;;;9.29;100.00;101357.91;4996539;28;20210;-69
2023/02/17 04:33:45;;;;;;;56.37;33.97;;;;;;;9.30;100.00;101357.06;4991714;28;20630;-69
2023/02/17 04:36:11;;;;;;;50.90;33.67;;;;;;;9.31;100.00;101361.34;4997213;28;20238;-70
2023/02/17 04:38:37;;;;;;;51.20;32.93;;;;;;;9.29;100.00;101357.00;4996770;28;20231;-70
2023/02/17 04:41:02;;;;;;;50.80;32.33;;;;;;;9.31;100.00;101360.50;4989496;28;20307;-70
2023/02/17 04:43:28;;;;;;;50.33;33.83;;;;;;;9.30;100.00;101361.34;4995597;28;20184;-69
2023/02/17 04:45:54;;;;;;;47.73;32.77;;;;;;;9.32;100.00;101357.13;4994758;28;20212;-69
2023/02/17 04:48:19;;;;;;;45.80;30.50;;;;;;;9.31;100.00;101356.25;4991162;28;20635;-69
2023/02/17 04:50:45;;;;;;;47.40;31.77;;;;;;;9.32;100.00;101349.47;4993693;28;20207;-70
2023/02/17 04:53:12;;;;;;;44.87;30.50;;;;;;;9.31;100.00;101343.47;4995697;28;20588;-70
2023/02/17 04:55:39;;;;;;;46.33;31.93;;;;;;;9.35;100.00;101347.88;4993019;28;20217;-69
2023/02/17 04:58:04;;;;;;;46.77;31.10;;;;;;;9.35;100.00;101337.63;4991535;28;20194;-69
2023/02/17 05:00:30;;;;;;;45.10;30.17;;;;;;;9.36;100.00;101343.63;4990971;28;20235;-69
2023/02/17 05:02:55;;;;;;;46.17;30.03;;;;;;;9.36;100.00;101346.19;4991092;28;20213;-70
2023/02/17 05:05:21;;;;;;;44.57;29.40;;;;;;;9.36;100.00;101343.63;4993818;28;20239;-70
2023/02/17 05:07:47;;;;;;;44.63;29.60;;;;;;;9.36;100.00;101338.53;4998500;28;20686;-69
2023/02/17 05:10:14;;;;;;;44.33;29.27;;;;;;;9.36;100.00;101339.38;4991565;28;20970;-69
2023/02/17 05:12:39;;;;;;;47.20;29.53;;;;;;;9.38;100.00;101335.19;4993416;28;20230;-70
2023/02/17 05:15:07;;;;;;;43.57;27.87;;;;;;;9.38;100.00;101327.53;4995788;28;20235;-70
2023/02/17 05:17:33;;;;;;;41.67;29.03;;;;;;;9.41;100.00;101327.63;4993496;28;20191;-70
2023/02/17 05:19:58;;;;;;;44.90;27.90;;;;;;;9.42;100.00;101325.94;4986377;28;20222;-70
2023/02/17 05:22:24;;;;;;;44.30;28.87;;;;;;;9.43;100.00;101320.00;4986790;28;20195;-70
2023/02/17 05:24:50;;;;;;;41.87;27.70;;;;;;;9.45;100.00;101313.25;4988020;28;20192;-70
2023/02/17 05:27:15;;;;;;;44.73;28.60;;;;;;;9.46;100.00;101312.44;4985343;28;20254;-70
2023/02/17 05:29:41;;;;;;;39.90;27.00;;;;;;;9.47;100.00;101309.94;4982791;28;20238;-70
2023/02/17 05:32:06;;;;;;;42.33;28.73;;;;;;;9.49;100.00;101302.31;4986582;28;20691;-69
2023/02/17 05:34:32;;;;;;;43.13;27.23;;;;;;;9.50;100.00;101302.31;4984767;28;20227;-68
2023/02/17 05:36:57;;;;;;;44.70;27.83;;;;;;;9.53;100.00;101299.00;4984021;28;20200;-70
2023/02/17 05:39:23;;;;;;;41.47;27.47;;;;;;;9.53;100.00;101299.88;4987170;28;20215;-69
2023/02/17 05:41:48;;;;;;;42.77;29.03;;;;;;;9.55;100.00;101288.03;4983791;28;20231;-70
2023/02/17 05:44:14;;;;;;;44.20;29.40;;;;;;;9.56;100.00;101283.75;4984779;28;20572;-69
2023/02/17 05:46:39;;;;;;;47.67;31.37;;;;;;;9.59;100.00;101292.38;4989666;28;20794;-68
2023/02/17 05:49:05;;;;;;;46.30;30.60;;;;;;;9.59;100.00;101287.28;4984542;28;20189;-69
2023/02/17 05:51:30;;;;;;;43.60;30.17;;;;;;;9.60;100.00;101278.81;4988848;28;20591;-69
2023/02/17 05:53:56;;;;;;;47.43;31.07;;;;;;;9.60;100.00;101271.13;4989049;28;20317;-69
2023/02/17 05:56:21;;;;;;;51.40;32.63;;;;;;;9.62;100.00;101261.81;4984175;28;20560;-69
2023/02/17 05:58:46;;;;;;;47.87;31.30;;;;;;;9.63;100.00;101255.88;4994048;28;20712;-68
2023/02/17 06:01:12;;;;;;;49.67;31.30;;;;;;;9.64;100.00;101256.75;4993423;28;20211;-70
2023/02/17 06:03:38;;;;;;;59.07;33.07;;;;;;;9.72;100.00;101257.84;4991683;28;20648;-71
2023/02/17 06:06:04;;;;;;;48.80;32.30;;;;;;;9.73;100.00;101257.03;4994487;28;20250;-71
2023/02/17 06:08:30;;;;;;;49.80;31.53;;;;;;;9.72;100.00;101257.84;4996652;28;20270;-70
2023/02/17 06:10:55;;;;;;;52.73;31.83;;;;;;;9.71;100.00;101266.31;4992003;28;20219;-69
2023/02/17 06:13:20;;;;;;;46.60;29.77;;;;;;;9.69;100.00;101252.63;4992493;28;20314;-70
2023/02/17 06:15:46;;;;;;;51.13;31.77;;;;;;;9.69;100.00;101248.41;4976619;28;20222;-69
2023/02/17 06:18:12;;;;;;;50.60;32.47;;;;;;;9.69;100.00;101250.97;4991173;28;20200;-70
2023/02/17 06:20:38;;;;;;;48.17;29.80;;;;;;;9.68;100.00;101251.75;4991997;28;20234;-69
2023/02/17 06:23:03;;;;;;;45.50;29.07;;;;;;;9.69;100.00;101250.06;4988931;28;20250;-70
2023/02/17 06:25:29;;;;;;;43.47;29.50;;;;;;;9.72;100.00;101255.28;4993096;28;20681;-70
2023/02/17 06:27:54;;;;;;;42.87;28.93;;;;;;;9.71;100.00;101248.41;4990591;28;20195;-69
2023/02/17 06:30:20;;;;;;;44.87;27.53;;;;;;;9.70;100.00;101229.66;4992993;28;20750;-70
2023/02/17 06:32:46;;;;;;;44.53;28.77;;;;;;;9.72;100.00;101230.56;4993282;28;20187;-70
2023/02/17 06:35:11;;;;;;;44.83;27.57;;;;;;;9.71;100.00;101230.53;4990595;28;20754;-70
2023/02/17 06:37:37;;;;;;;44.67;28.03;;;;;;;9.71;100.00;101218.63;4998314;28;20877;-70
2023/02/17 06:40:03;;;;;;;44.83;27.57;;;;;;;9.72;100.00;101211.81;4989346;28;20771;-70
2023/02/17 06:42:28;;;;;;;41.27;26.57;;;;;;;9.72;100.00;101199.88;4989675;28;20635;-70
2023/02/17 06:44:54;;;;;;;41.77;26.87;;;;;;;9.73;100.00;101209.28;4996751;28;20221;-70
2023/02/17 06:47:19;;;;;;;43.83;26.23;;;;;;;9.74;100.00;101190.59;4991816;28;20202;-70
2023/02/17 06:49:44;;;;;;;44.80;28.10;;;;;;;9.72;100.00;101189.66;4992943;28;20207;-69
2023/02/17 06:52:10;;;;;;;43.40;28.23;;;;;;;9.74;100.00;101189.72;4992299;28;20611;-69
2023/02/17 06:54:35;;;;;;;46.63;28.23;;;;;;;9.71;100.00;101172.59;4994005;28;20268;-70
2023/02/17 06:57:01;;;;;;;46.63;28.73;;;;;;;9.72;100.00;101176.03;4985200;28;20187;-69
2023/02/17 06:59:26;;;;;;;49.93;29.40;;;;;;;9.71;100.00;101167.47;4996195;28;20640;-70
2023/02/17 07:01:52;;;;;;;48.00;28.30;;;;;;;9.73;100.00;101168.38;4994135;28;20200;-69
2023/02/17 07:04:17;;;;;;;49.67;29.57;;;;;;;9.72;100.00;101161.53;4987985;28;20196;-69
2023/02/17 07:06:42;;;;;;;53.60;30.43;;;;;;;9.72;100.00;101171.75;4990170;28;20554;-70
2023/02/17 07:09:10;;;;;;;52.77;30.90;;;;;;;9.73;100.00;101160.69;4993201;28;20200;-70
2023/02/17 07:11:35;;;;;;;56.80;31.50;;;;;;;9.72;100.00;101166.66;4989694;28;20318;-70
2023/02/17 07:14:01;;;;;;;52.93;31.37;;;;;;;9.73;100.00;101159.84;4992352;28;20756;-69
2023/02/17 07:16:27;;;;;;;57.43;34.27;;;;;;;9.77;100.00;101157.41;4989993;28;20222;-69
2023/02/17 07:18:52;;;;;;;58.63;33.57;;;;;;;9.76;100.00;101153.13;4988745;28;20200;-71
2023/02/17 07:21:17;;;;;;;57.50;33.77;;;;;;;9.77;100.00;101151.44;4990942;28;20219;-70
2023/02/17 07:23:43;;;;;;;58.77;35.40;;;;;;;9.78;100.00;101145.50;4991109;28;20607;-69
2023/02/17 07:26:10;;;;;;;61.40;37.23;;;;;;;9.78;100.00;101133.59;4986224;28;20202;-71
2023/02/17 07:28:37;;;;;;;57.07;35.67;;;;;;;9.78;100.00;101132.72;4993105;28;20205;-70
2023/02/17 07:31:06;;;;;;;60.43;37.00;;;;;;;9.79;100.00;101131.88;4993648;28;20253;-69
2023/02/17 07:33:33;;;;;;;60.87;36.87;;;;;;;9.80;100.00;101143.84;4986301;28;20227;-68
2023/02/17 07:35:59;;;;;;;58.87;34.33;;;;;;;9.81;100.00;101136.22;4991878;28;20196;-70
2023/02/17 07:38:24;;;;;;;52.30;32.97;;;;;;;9.82;100.00;101140.50;4990261;28;20246;-69
2023/02/17 07:40:49;;;;;;;55.50;34.27;;;;;;;9.81;100.00;101133.66;4990409;28;20259;-70
2023/02/17 07:43:15;;;;;;;56.90;34.80;;;;;;;9.80;100.00;101134.47;4987054;28;20203;-70
2023/02/17 07:45:40;;;;;;;56.53;33.97;;;;;;;9.80;100.00;101131.94;4973575;28;20288;-69
2023/02/17 07:48:06;;;;;;;55.60;33.13;;;;;;;9.81;100.00;101130.25;4985385;28;20227;-70
2023/02/17 07:50:31;;;;;;;54.80;33.57;;;;;;;9.83;100.00;101126.03;4993533;28;20261;-70
2023/02/17 07:52:57;;;;;;;50.63;32.13;;;;;;;9.85;100.00;101119.25;4991990;28;20255;-69
2023/02/17 07:55:23;;;;;;;55.60;32.13;;;;;;;9.86;100.00;101119.28;4989688;28;20208;-70
2023/02/17 07:57:48;;;;;;;55.07;34.37;;;;;;;9.90;100.00;101110.03;4994319;28;20621;-70
2023/02/17 08:00:14;;;;;;;48.70;31.40;;;;;;;9.90;100.00;101100.66;4990665;28;20239;-70
2023/02/17 08:02:40;;;;;;;50.37;31.83;;;;;;;9.92;100.00;101101.56;4990662;28;20223;-70
2023/02/17 08:05:05;;;;;;;48.27;30.30;;;;;;;9.94;100.00;101105.03;4990712;28;20323;-70
2023/02/17 08:07:31;;;;;;;48.33;31.40;;;;;;;9.97;100.00;101101.69;4996308;28;20691;-69
2023/02/17 08:15:33;;;;;;;44.80;27.07;;;;;;;9.98;100.00;101103.41;4997855;28;20300;-70
2023/02/17 08:17:59;;;;;;;47.97;29.80;;;;;;;9.98;100.00;101075.25;4989325;28;20294;-70
2023/02/17 08:20:26;;;;;;;52.70;32.83;;;;;;;9.99;100.00;101069.31;4991685;28;20693;-69
2023/02/17 08:22:51;;;;;;;42.20;26.93;;;;;;;9.97;100.00;101069.31;4988972;28;20199;-70
2023/02/17 08:25:17;;;;;;;41.90;28.20;;;;;;;9.96;100.00;101064.13;4987511;28;20200;-71
2023/02/17 08:27:43;;;;;;;40.83;26.43;;;;;;;9.97;100.00;101066.75;4988195;28;20218;-70
2023/02/17 08:30:09;;;;;;;42.47;27.53;;;;;;;9.96;100.00;101074.38;4989108;28;20301;-69
2023/02/17 08:32:34;;;;;;;43.23;28.33;;;;;;;9.95;100.00;101063.25;4990978;28;20211;-69
2023/02/17 08:35:00;;;;;;;47.13;27.77;;;;;;;9.95;100.00;101052.19;4992553;28;20266;-70
2023/02/17 08:37:26;;;;;;;45.57;28.80;;;;;;;9.96;100.00;101051.34;4995828;28;20273;-71
2023/02/17 08:39:52;;;;;;;42.83;27.37;;;;;;;9.97;100.00;101032.63;4995120;28;20819;-70
2023/02/17 08:42:18;;;;;;;38.23;25.17;;;;;;;9.97;100.00;101037.72;4987537;28;20216;-70
2023/02/17 08:44:44;;;;;;;37.97;23.63;;;;;;;9.98;100.00;101037.78;4988995;28;20199;-71
2023/02/17 08:47:09;;;;;;;38.17;23.17;;;;;;;9.99;100.00;101024.16;4981684;28;20223;-70
2023/02/17 08:49:35;;;;;;;37.93;23.60;;;;;;;9.98;100.00;101034.34;4989250;28;20203;-70
2023/02/17 08:52:00;;;;;;;39.00;23.87;;;;;;;9.97;100.00;101023.25;4994855;28;20196;-70
2023/02/17 08:54:26;;;;;;;35.00;21.93;;;;;;;9.97;100.00;101013.03;4995993;28;20208;-69
2023/02/17 08:56:51;;;;;;;33.30;22.33;;;;;;;9.98;100.00;101012.19;4989033;28;20282;-69
2023/02/17 08:59:16;;;;;;;35.67;22.27;;;;;;;9.99;100.00;101011.34;4996139;28;20676;-69
2023/02/17 09:01:42;;;;;;;32.93;20.03;;;;;;;10.01;100.00;101011.41;4994511;28;20294;-69
2023/02/17 09:04:10;;;;;;;30.63;19.40;;;;;;;10.02;100.00;101020.78;4987487;28;20282;-69
2023/02/17 09:06:41;;;;;;;30.90;20.07;;;;;;;10.01;100.00;101034.41;4994567;28;20199;-70
2023/02/17 09:09:09;;;;;;;32.80;20.10;;;;;;;10.02;100.00;101028.47;4991026;28;20661;-69
2023/02/17 09:11:35;;;;;;;30.87;18.50;;;;;;;10.03;100.00;101041.31;4991089;28;20234;-69
2023/02/17 09:14:01;;;;;;;29.87;18.73;;;;;;;10.06;100.00;101030.31;4989917;28;20216;-70
2023/02/17 09:16:27;;;;;;;34.03;19.93;;;;;;;10.07;100.00;101032.91;4995526;28;20335;-70
2023/02/17 09:18:53;;;;;;;26.37;18.37;;;;;;;10.08;100.00;101032.06;4991229;28;20283;-71
2023/02/17 09:21:19;;;;;;;28.37;18.33;;;;;;;10.10;100.00;101032.97;4989521;28;20207;-71
2023/02/17 09:23:45;;;;;;;30.10;18.57;;;;;;;10.10;100.00;101020.16;4990666;28;20187;-70
2023/02/17 09:26:13;;;;;;;32.63;19.80;;;;;;;10.09;100.00;101008.22;4987772;28;20721;-70
2023/02/17 09:28:39;;;;;;;29.87;18.60;;;;;;;10.08;100.00;101006.50;4996515;28;20198;-69
2023/02/17 09:31:11;;;;;;;30.30;19.33;;;;;;;10.08;100.00;100995.38;4993638;28;20216;-69
2023/02/17 09:33:37;;;;;;;30.93;19.50;;;;;;;10.11;100.00;101004.03;4988842;28;20306;-70
2023/02/17 09:36:05;;;;;;;32.57;18.67;;;;;;;10.12;100.00;100992.94;4989340;28;20553;-71
2023/02/17 09:38:30;;;;;;;29.57;18.70;;;;;;;10.14;100.00;100981.03;4996832;28;20286;-70
2023/02/17 09:41:07;;;;;;;27.77;18.27;;;;;;;10.16;100.00;100984.53;4990205;28;20314;-70
2023/02/17 09:43:32;;;;;;;27.40;17.10;;;;;;;10.18;100.00;100975.16;4992280;28;20201;-70
2023/02/17 09:46:06;;;;;;;26.57;17.87;;;;;;;10.22;100.00;100955.63;4981295;28;20306;-70
2023/02/17 09:48:34;;;;;;;26.33;17.97;;;;;;;10.24;100.00;100959.09;5004981;28;20199;-70
2023/02/17 09:51:05;;;;;;;23.77;16.03;;;;;;;10.26;100.00;100962.53;4994658;28;20222;-70
2023/02/17 09:53:47;;;;;;;25.00;16.47;;;;;;;10.27;100.00;100938.72;4996931;28;20224;-68
2023/02/17 09:56:18;;;;;;;23.53;15.67;;;;;;;10.30;100.00;100947.31;4987615;28;20192;-70
2023/02/17 09:59:04;;;;;;;22.57;14.97;;;;;;;10.30;100.00;100934.50;4996973;28;20187;-71
2023/02/17 10:01:32;;;;;;;23.03;16.13;;;;;;;10.33;100.00;100918.34;4995567;28;20207;-71
2023/02/17 10:04:07;;;;;;;24.23;15.63;;;;;;;10.33;100.00;100939.69;4987904;28;20665;-70
2023/02/17 10:06:36;;;;;;;26.53;16.37;;;;;;;10.34;100.00;100954.22;4986934;28;20191;-70
2023/02/17 10:09:38;;;;;;;28.47;16.57;;;;;;;10.34;100.00;100938.00;4974258;28;20306;-68
2023/02/17 10:12:08;;;;;;;22.67;16.03;;;;;;;10.35;100.00;100943.16;4997213;28;20218;-70
2023/02/17 10:14:42;;;;;;;24.60;16.03;;;;;;;10.36;100.00;100941.44;4997383;28;20227;-69
2023/02/17 10:17:26;;;;;;;23.17;15.60;;;;;;;10.36;100.00;100955.09;4989071;28;20307;-70
2023/02/17 10:20:19;;;;;;;26.63;16.67;;;;;;;10.38;100.00;100944.91;4988046;28;20306;-69
2023/02/17 10:22:52;;;;;;;29.73;17.70;;;;;;;10.38;100.00;100948.34;4992303;28;20632;-70
2023/02/17 10:25:32;;;;;;;27.00;16.73;;;;;;;10.57;100.00;100944.47;4989258;28;20252;-67
2023/02/17 10:28:09;;;;;;;25.73;17.27;;;;;;;10.63;100.00;100945.47;4973179;28;20266;-67
2023/02/17 10:30:43;;;;;;;23.93;16.10;;;;;;;10.64;100.00;100962.53;4996009;28;20696;-67
2023/02/17 10:33:30;;;;;;;26.07;16.60;;;;;;;10.68;100.00;100961.78;4988948;28;20196;-67
2023/02/17 10:36:20;;;;;;;26.67;17.27;;;;;;;10.64;100.00;100964.25;5002856;28;20565;-71
2023/02/17 10:39:00;;;;;;;25.73;16.97;;;;;;;10.57;100.00;100960.69;4987944;28;20211;-69
2023/02/17 10:41:32;;;;;;;28.13;18.03;;;;;;;10.57;100.00;100977.75;4982415;28;20219;-71
2023/02/17 10:43:59;;;;;;;25.23;16.50;;;;;;;10.57;100.00;100964.94;4985589;28;20783;-71
2023/02/17 10:46:30;;;;;;;28.53;17.90;;;;;;;10.57;100.00;100960.69;4970532;28;20247;-69
2023/02/17 10:48:57;;;;;;;28.50;16.53;;;;;;;10.55;100.00;100982.84;4985838;28;20223;-70
2023/02/17 10:51:29;;;;;;;27.63;17.27;;;;;;;10.57;100.00;100958.16;4982360;28;20581;-70
2023/02/17 10:54:05;;;;;;;27.83;17.67;;;;;;;10.56;100.00;100953.00;4986049;28;20270;-71
2023/02/17 10:56:52;;;;;;;27.77;17.57;;;;;;;10.54;100.00;100949.50;4983302;28;20226;-71
2023/02/17 10:59:32;;;;;;;31.13;18.30;;;;;;;10.57;100.00;100949.59;4986144;28;20238;-70
2023/02/17 11:02:36;;;;;;;28.23;18.37;;;;;;;10.57;100.00;100939.34;4987573;28;20604;-70
2023/02/17 11:05:03;;;;;;;28.20;17.90;;;;;;;10.59;100.00;100925.75;4978536;28;20303;-69
2023/02/17 11:07:32;;;;;;;29.90;18.77;;;;;;;10.61;100.00;100925.78;4985233;28;20200;-70
2023/02/17 11:10:01;;;;;;;28.83;17.87;;;;;;;10.64;100.00;100928.41;4983692;28;20330;-71
2023/02/17 11:12:48;;;;;;;31.50;18.83;;;;;;;10.64;100.00;100931.81;4980682;28;20203;-70
2023/02/17 11:15:28;;;;;;;32.00;19.30;;;;;;;10.65;100.00;100930.13;4982081;28;20231;-69
2023/02/17 11:17:55;;;;;;;33.47;20.23;;;;;;;10.64;100.00;100919.00;4984128;28;20187;-70
2023/02/17 11:20:20;;;;;;;32.73;20.13;;;;;;;10.66;100.00;100913.94;4976600;28;20286;-70